General Aviation Weather

Text Reports

Enter one or more of the following location identifiers separated by a space:

Zip Code, Four-Character ICAO or Three-Character IATA airport codes.

METAR - Aviation Routine Weather Report
KMMU - Morristown, New Jersey
Updated at 7:55 AM GMT on August 31, 2014 (3:55 AM EDT):
METAR KMMU 310755Z AUTO 00000KT 10SM OVC019 21/17 A3013 RMK AO2
TAF - Terminal Area Forecast
KMMU - Morristown, New Jersey
Updated at 7:55 AM GMT on August 31, 2014 (3:55 AM EDT):
No TAF is currently available for this location.
Decoded:
No decoded TAF is available.
PIREP - Pilot Weather Report
KMMU - Morristown, New Jersey
Updated at 7:55 AM GMT on August 31, 2014 (3:55 AM EDT):
No PIREP is currently available for this location.
AIRMET - Airmens Meteorological Information
KMMU - Morristown, New Jersey
Updated at 7:55 AM GMT on August 31, 2014 (3:55 AM EDT):
No AIRMET is currently available for this location.
SIGMET - Significant Meteorological Information
KMMU - Morristown, New Jersey
Updated at 7:55 AM GMT on August 31, 2014 (3:55 AM EDT):
No SIGMET is currently available for this location.
NOTAM - Notice to Airmen
KMMU - Morristown, New Jersey
Updated at 7:55 AM GMT on August 31, 2014 (3:55 AM EDT):
No NOTAM is currently available for this location.
Forecast Area
KMMU - Morristown, New Jersey
Updated at 7:55 AM GMT on August 31, 2014 (3:55 AM EDT):
No NOTAM is currently available for this location.
Aviation Weather Maps